createdAt,value
2023-02-15T00:08:58.866Z,-0.5
2023-02-15T00:19:00.986Z,-1.4
2023-02-15T00:29:03.329Z,-1.3
2023-02-15T00:39:05.535Z,-1.4
2023-02-15T00:49:07.830Z,-1.1
2023-02-15T00:59:10.121Z,-1.1
2023-02-15T01:09:12.370Z,-1.1
2023-02-15T01:19:14.601Z,-1.1
2023-02-15T01:29:16.792Z,-1.1
2023-02-15T01:39:19.025Z,-1.2
2023-02-15T01:49:21.387Z,-1.4
2023-02-15T01:59:23.500Z,-1.3
2023-02-15T02:09:25.864Z,-1.1
2023-02-15T02:19:28.060Z,-1.3
2023-02-15T02:29:30.321Z,-1.2
2023-02-15T02:39:32.439Z,-1
2023-02-15T02:49:34.858Z,-1
2023-02-15T02:59:36.996Z,-0.4
2023-02-15T03:08:09.556Z,0.3
2023-02-15T03:18:10.323Z,0.1
2023-02-15T03:28:13.005Z,-0.8
2023-02-15T03:38:14.647Z,0.3
2023-02-15T03:48:15.532Z,0.1
2023-02-15T03:58:18.106Z,-0.5
2023-02-15T04:08:20.894Z,-0.2
2023-02-15T04:18:23.738Z,0.4
2023-02-15T04:28:26.756Z,-0.4
2023-02-15T04:38:29.553Z,-0.1
2023-02-15T04:48:32.768Z,-0.4
2023-02-15T04:58:36.019Z,-0.8
2023-02-15T05:08:38.377Z,-0.3
2023-02-15T05:18:40.792Z,-1.1
2023-02-15T05:28:43.225Z,-0.1
2023-02-15T05:38:45.644Z,-0.9
2023-02-15T05:48:48.089Z,-0.8
2023-02-15T05:58:50.629Z,-0.6
2023-02-15T06:08:53.119Z,-0.6
2023-02-15T06:18:55.562Z,0
2023-02-15T06:28:58.188Z,-0.1
2023-02-15T06:39:00.958Z,-0.3
2023-02-15T06:49:03.786Z,-0.3
2023-02-15T06:59:06.558Z,0.2
2023-02-15T07:09:10.241Z,4.3
2023-02-15T07:19:16.264Z,2.6
2023-02-15T07:29:25.806Z,2.4
2023-02-15T07:39:35.396Z,3.8
2023-02-15T07:49:45.041Z,7.8
2023-02-15T07:59:52.767Z,3.4
2023-02-15T08:10:00.826Z,5.5
2023-02-15T08:20:08.597Z,6.4
2023-02-15T08:30:16.500Z,0.7
2023-02-15T08:40:22.127Z,0.6
2023-02-15T08:50:25.908Z,0.1
2023-02-15T09:08:13.703Z,2.9
2023-02-15T09:18:19.195Z,1.8
2023-02-15T09:27:28.274Z,3
2023-02-15T09:37:33.908Z,1
2023-02-15T09:47:41.099Z,5.1
2023-02-15T09:57:48.406Z,5.8
2023-02-15T10:07:56.472Z,8.1
2023-02-15T10:18:04.012Z,5.9
2023-02-15T10:28:13.277Z,4.2
2023-02-15T10:38:24.180Z,5.9
2023-02-15T10:48:33.265Z,6.4
2023-02-15T10:58:43.523Z,6.1
2023-02-15T11:08:51.605Z,13.9
2023-02-15T11:19:01.705Z,27.6
2023-02-15T11:29:08.352Z,24.2
2023-02-15T11:39:15.941Z,23.7
2023-02-15T11:49:24.406Z,15.6
2023-02-15T11:59:29.200Z,6.7
2023-02-15T12:09:30.783Z,0.7
2023-02-15T12:19:35.113Z,10.4
2023-02-15T12:29:38.271Z,10.3
2023-02-15T12:39:37.165Z,9.6
2023-02-15T12:49:40.082Z,1.9
2023-02-15T12:59:43.974Z,4
2023-02-15T13:09:44.495Z,3.7
2023-02-15T13:19:46.124Z,3.5
2023-02-15T13:29:48.695Z,3.4
2023-02-15T13:39:50.967Z,3.1
2023-02-15T13:49:52.968Z,2.9
2023-02-15T13:59:55.306Z,2.8
2023-02-15T14:09:58.109Z,2.3
2023-02-15T14:20:00.481Z,2
2023-02-15T14:30:02.925Z,2
2023-02-15T14:40:04.328Z,5.8
2023-02-15T14:50:06.912Z,-6.8
2023-02-15T15:08:10.217Z,-4.1
2023-02-15T15:18:10.587Z,5.4
2023-02-15T15:28:10.460Z,4.4
2023-02-15T15:38:13.019Z,-6.8
2023-02-15T15:48:12.544Z,4.6
2023-02-15T15:58:13.631Z,4.3
2023-02-15T16:08:15.331Z,4
2023-02-15T16:18:18.276Z,4.1
2023-02-15T16:28:20.703Z,3.9
2023-02-15T16:38:22.802Z,3.2
2023-02-15T16:48:25.304Z,-5.1
2023-02-15T16:58:26.141Z,3.3
2023-02-15T17:08:26.284Z,3
2023-02-15T17:18:26.250Z,3
2023-02-15T17:28:26.690Z,-7.1
2023-02-15T17:38:26.645Z,2.8
2023-02-15T17:48:26.337Z,3.8
2023-02-15T17:58:26.263Z,2.4
2023-02-15T18:08:25.302Z,3.2
2023-02-15T18:18:25.347Z,2.9
2023-02-15T18:28:25.065Z,-8
2023-02-15T18:38:25.573Z,-6.6
2023-02-15T18:48:24.453Z,3.3
2023-02-15T18:58:24.421Z,2.8
2023-02-15T19:08:24.707Z,2.4
2023-02-15T19:18:24.236Z,3.3
2023-02-15T19:28:24.654Z,2.9
2023-02-15T19:38:25.066Z,2.3
2023-02-15T19:48:24.806Z,-7.8
2023-02-15T19:58:23.784Z,2.4
2023-02-15T20:08:24.276Z,2.1
2023-02-15T20:18:24.376Z,1.4
2023-02-15T20:28:24.839Z,1.9
2023-02-15T20:38:24.121Z,2.4
2023-02-15T20:48:24.660Z,2.3
2023-02-15T20:58:25.426Z,1.8
2023-02-15T21:07:08.284Z,2.2
2023-02-15T21:17:08.879Z,-5.8
2023-02-15T21:27:09.786Z,1.6
2023-02-15T21:37:11.153Z,-1.8
2023-02-15T21:47:11.391Z,1
2023-02-15T21:57:12.327Z,-7.3
2023-02-15T22:07:13.294Z,1.9
2023-02-15T22:17:12.330Z,0.8
2023-02-15T22:27:12.406Z,1.6
2023-02-15T22:37:11.939Z,0.6
2023-02-15T22:47:10.707Z,0.6
2023-02-15T22:57:11.576Z,0.3
2023-02-15T23:07:10.893Z,-8.1
2023-02-15T23:17:10.663Z,-0.2
2023-02-15T23:27:10.243Z,0.7
2023-02-15T23:37:10.647Z,-6.4
2023-02-15T23:47:10.201Z,-8
2023-02-15T23:57:09.502Z,0.1
